sensor_id;sensor_type;location;lat;lon;timestamp;P1;durP1;ratioP1;P2;durP2;ratioP2
39050;SDS011;24805;55.852;37.644;2023-09-19T00:03:49;8.93;;;7.57;;
39050;SDS011;24805;55.852;37.644;2023-09-19T00:08:54;11.82;;;8.55;;
39050;SDS011;24805;55.852;37.644;2023-09-19T00:13:56;10.85;;;8.98;;
39050;SDS011;24805;55.852;37.644;2023-09-19T00:19:01;14.43;;;10.20;;
39050;SDS011;24805;55.852;37.644;2023-09-19T00:24:09;12.43;;;9.02;;
39050;SDS011;24805;55.852;37.644;2023-09-19T00:29:13;14.10;;;8.95;;
39050;SDS011;24805;55.852;37.644;2023-09-19T00:34:18;12.60;;;7.90;;
39050;SDS011;24805;55.852;37.644;2023-09-19T00:39:22;9.20;;;7.90;;
39050;SDS011;24805;55.852;37.644;2023-09-19T00:44:24;9.45;;;7.93;;
39050;SDS011;24805;55.852;37.644;2023-09-19T00:49:26;9.45;;;7.55;;
39050;SDS011;24805;55.852;37.644;2023-09-19T00:54:29;10.02;;;7.93;;
39050;SDS011;24805;55.852;37.644;2023-09-19T00:59:31;10.75;;;7.65;;
39050;SDS011;24805;55.852;37.644;2023-09-19T01:04:33;9.48;;;7.70;;
39050;SDS011;24805;55.852;37.644;2023-09-19T01:09:36;11.60;;;8.20;;
39050;SDS011;24805;55.852;37.644;2023-09-19T01:20:01;9.80;;;8.52;;
39050;SDS011;24805;55.852;37.644;2023-09-19T01:30:46;12.18;;;9.07;;
39050;SDS011;24805;55.852;37.644;2023-09-19T01:35:52;11.07;;;8.80;;
39050;SDS011;24805;55.852;37.644;2023-09-19T01:41:00;12.07;;;9.55;;
39050;SDS011;24805;55.852;37.644;2023-09-19T01:57:03;11.18;;;9.30;;
39050;SDS011;24805;55.852;37.644;2023-09-19T02:02:11;13.32;;;9.27;;
39050;SDS011;24805;55.852;37.644;2023-09-19T02:07:14;13.75;;;9.93;;
39050;SDS011;24805;55.852;37.644;2023-09-19T02:12:17;14.32;;;9.35;;
39050;SDS011;24805;55.852;37.644;2023-09-19T02:17:19;17.73;;;9.82;;
39050;SDS011;24805;55.852;37.644;2023-09-19T02:22:21;24.70;;;13.00;;
39050;SDS011;24805;55.852;37.644;2023-09-19T02:27:26;23.27;;;12.82;;
39050;SDS011;24805;55.852;37.644;2023-09-19T02:32:28;17.70;;;10.05;;
39050;SDS011;24805;55.852;37.644;2023-09-19T02:37:32;16.58;;;11.18;;
39050;SDS011;24805;55.852;37.644;2023-09-19T02:42:35;14.80;;;10.55;;
39050;SDS011;24805;55.852;37.644;2023-09-19T02:47:37;15.27;;;10.15;;
39050;SDS011;24805;55.852;37.644;2023-09-19T02:52:41;14.18;;;10.60;;
39050;SDS011;24805;55.852;37.644;2023-09-19T02:57:47;15.13;;;10.30;;
39050;SDS011;24805;55.852;37.644;2023-09-19T03:02:52;13.68;;;11.13;;
39050;SDS011;24805;55.852;37.644;2023-09-19T03:07:59;13.55;;;10.88;;
39050;SDS011;24805;55.852;37.644;2023-09-19T03:13:05;14.40;;;11.00;;
39050;SDS011;24805;55.852;37.644;2023-09-19T03:18:11;14.43;;;11.10;;
39050;SDS011;24805;55.852;37.644;2023-09-19T03:23:14;17.20;;;10.55;;
39050;SDS011;24805;55.852;37.644;2023-09-19T03:28:16;14.45;;;10.15;;
39050;SDS011;24805;55.852;37.644;2023-09-19T03:33:19;12.48;;;9.30;;
39050;SDS011;24805;55.852;37.644;2023-09-19T03:38:22;12.85;;;9.90;;
39050;SDS011;24805;55.852;37.644;2023-09-19T03:43:24;13.85;;;9.02;;
39050;SDS011;24805;55.852;37.644;2023-09-19T03:48:26;15.48;;;8.95;;
39050;SDS011;24805;55.852;37.644;2023-09-19T03:53:30;11.95;;;7.72;;
39050;SDS011;24805;55.852;37.644;2023-09-19T03:58:32;10.65;;;7.25;;
39050;SDS011;24805;55.852;37.644;2023-09-19T04:03:36;13.43;;;7.70;;
39050;SDS011;24805;55.852;37.644;2023-09-19T04:08:49;9.32;;;7.47;;
39050;SDS011;24805;55.852;37.644;2023-09-19T04:13:51;13.95;;;7.28;;
39050;SDS011;24805;55.852;37.644;2023-09-19T04:18:53;12.93;;;8.02;;
39050;SDS011;24805;55.852;37.644;2023-09-19T04:23:55;12.00;;;7.13;;
39050;SDS011;24805;55.852;37.644;2023-09-19T04:28:58;11.48;;;7.78;;
39050;SDS011;24805;55.852;37.644;2023-09-19T04:34:00;15.20;;;8.07;;
39050;SDS011;24805;55.852;37.644;2023-09-19T04:39:06;11.55;;;7.75;;
39050;SDS011;24805;55.852;37.644;2023-09-19T04:44:09;11.85;;;7.97;;
39050;SDS011;24805;55.852;37.644;2023-09-19T04:49:11;12.98;;;10.77;;
39050;SDS011;24805;55.852;37.644;2023-09-19T04:54:14;10.55;;;8.02;;
39050;SDS011;24805;55.852;37.644;2023-09-19T04:59:16;17.23;;;9.90;;
39050;SDS011;24805;55.852;37.644;2023-09-19T05:04:18;15.70;;;10.85;;
39050;SDS011;24805;55.852;37.644;2023-09-19T05:09:21;18.15;;;11.05;;
39050;SDS011;24805;55.852;37.644;2023-09-19T05:14:23;16.60;;;11.63;;
39050;SDS011;24805;55.852;37.644;2023-09-19T05:19:25;16.40;;;11.82;;
39050;SDS011;24805;55.852;37.644;2023-09-19T05:24:27;19.38;;;12.20;;
39050;SDS011;24805;55.852;37.644;2023-09-19T05:29:29;18.52;;;13.70;;
39050;SDS011;24805;55.852;37.644;2023-09-19T05:34:31;17.83;;;12.90;;
39050;SDS011;24805;55.852;37.644;2023-09-19T05:39:34;18.50;;;13.90;;
39050;SDS011;24805;55.852;37.644;2023-09-19T05:44:36;20.08;;;13.85;;
39050;SDS011;24805;55.852;37.644;2023-09-19T05:49:38;25.48;;;13.05;;
39050;SDS011;24805;55.852;37.644;2023-09-19T05:54:42;16.67;;;12.02;;
39050;SDS011;24805;55.852;37.644;2023-09-19T05:59:44;16.52;;;12.02;;
39050;SDS011;24805;55.852;37.644;2023-09-19T06:04:46;14.85;;;11.77;;
39050;SDS011;24805;55.852;37.644;2023-09-19T06:09:49;18.83;;;11.65;;
39050;SDS011;24805;55.852;37.644;2023-09-19T06:14:51;13.68;;;9.80;;
39050;SDS011;24805;55.852;37.644;2023-09-19T06:19:53;14.90;;;11.07;;
39050;SDS011;24805;55.852;37.644;2023-09-19T06:24:57;16.45;;;10.00;;
39050;SDS011;24805;55.852;37.644;2023-09-19T06:29:59;10.30;;;9.18;;
39050;SDS011;24805;55.852;37.644;2023-09-19T06:35:05;10.93;;;9.13;;
39050;SDS011;24805;55.852;37.644;2023-09-19T06:40:11;12.95;;;9.73;;
39050;SDS011;24805;55.852;37.644;2023-09-19T06:45:17;14.10;;;9.05;;
39050;SDS011;24805;55.852;37.644;2023-09-19T06:50:21;13.88;;;9.35;;
39050;SDS011;24805;55.852;37.644;2023-09-19T06:55:26;12.45;;;8.85;;
39050;SDS011;24805;55.852;37.644;2023-09-19T07:00:34;14.13;;;8.70;;
39050;SDS011;24805;55.852;37.644;2023-09-19T07:05:38;15.52;;;8.85;;
39050;SDS011;24805;55.852;37.644;2023-09-19T07:10:42;12.88;;;9.30;;
39050;SDS011;24805;55.852;37.644;2023-09-19T07:15:51;13.73;;;9.38;;
39050;SDS011;24805;55.852;37.644;2023-09-19T07:20:56;14.82;;;8.88;;
39050;SDS011;24805;55.852;37.644;2023-09-19T07:26:06;12.75;;;9.80;;
39050;SDS011;24805;55.852;37.644;2023-09-19T07:31:08;14.18;;;9.95;;
39050;SDS011;24805;55.852;37.644;2023-09-19T07:36:12;14.93;;;10.20;;
39050;SDS011;24805;55.852;37.644;2023-09-19T07:41:18;12.63;;;10.38;;
39050;SDS011;24805;55.852;37.644;2023-09-19T07:46:20;14.73;;;11.52;;
39050;SDS011;24805;55.852;37.644;2023-09-19T07:51:24;16.83;;;10.70;;
39050;SDS011;24805;55.852;37.644;2023-09-19T07:56:26;16.33;;;10.80;;
39050;SDS011;24805;55.852;37.644;2023-09-19T08:01:29;20.67;;;12.80;;
39050;SDS011;24805;55.852;37.644;2023-09-19T08:06:32;16.45;;;11.95;;
39050;SDS011;24805;55.852;37.644;2023-09-19T08:11:34;15.65;;;11.25;;
39050;SDS011;24805;55.852;37.644;2023-09-19T08:16:36;17.50;;;13.40;;
39050;SDS011;24805;55.852;37.644;2023-09-19T08:21:40;17.92;;;13.48;;
39050;SDS011;24805;55.852;37.644;2023-09-19T08:26:42;23.23;;;18.00;;
39050;SDS011;24805;55.852;37.644;2023-09-19T08:31:44;14.93;;;12.40;;
39050;SDS011;24805;55.852;37.644;2023-09-19T08:36:47;17.20;;;13.63;;
39050;SDS011;24805;55.852;37.644;2023-09-19T08:41:49;17.10;;;12.77;;
39050;SDS011;24805;55.852;37.644;2023-09-19T08:47:01;16.83;;;12.95;;
39050;SDS011;24805;55.852;37.644;2023-09-19T08:52:46;16.00;;;12.95;;
39050;SDS011;24805;55.852;37.644;2023-09-19T08:57:44;17.88;;;12.27;;
39050;SDS011;24805;55.852;37.644;2023-09-19T09:02:51;22.50;;;12.80;;
39050;SDS011;24805;55.852;37.644;2023-09-19T09:07:53;21.92;;;12.82;;
39050;SDS011;24805;55.852;37.644;2023-09-19T09:12:58;24.30;;;13.80;;
39050;SDS011;24805;55.852;37.644;2023-09-19T09:18:00;21.60;;;13.73;;
39050;SDS011;24805;55.852;37.644;2023-09-19T09:23:04;19.20;;;12.43;;
39050;SDS011;24805;55.852;37.644;2023-09-19T09:28:07;21.92;;;13.20;;
39050;SDS011;24805;55.852;37.644;2023-09-19T09:33:10;19.33;;;13.13;;
39050;SDS011;24805;55.852;37.644;2023-09-19T09:38:14;19.80;;;14.00;;
39050;SDS011;24805;55.852;37.644;2023-09-19T09:48:37;22.90;;;12.68;;
39050;SDS011;24805;55.852;37.644;2023-09-19T09:53:40;18.73;;;12.32;;
39050;SDS011;24805;55.852;37.644;2023-09-19T09:58:50;18.05;;;11.27;;
39050;SDS011;24805;55.852;37.644;2023-09-19T10:03:57;20.08;;;12.60;;
39050;SDS011;24805;55.852;37.644;2023-09-19T10:09:06;19.33;;;11.82;;
39050;SDS011;24805;55.852;37.644;2023-09-19T10:14:15;16.17;;;11.43;;
39050;SDS011;24805;55.852;37.644;2023-09-19T10:19:23;20.48;;;12.38;;
39050;SDS011;24805;55.852;37.644;2023-09-19T10:24:33;20.17;;;12.05;;
39050;SDS011;24805;55.852;37.644;2023-09-19T10:29:49;15.70;;;10.98;;
39050;SDS011;24805;55.852;37.644;2023-09-19T10:34:54;14.52;;;11.15;;
39050;SDS011;24805;55.852;37.644;2023-09-19T10:39:58;20.27;;;12.05;;
39050;SDS011;24805;55.852;37.644;2023-09-19T10:45:01;14.52;;;9.70;;
39050;SDS011;24805;55.852;37.644;2023-09-19T10:50:08;16.65;;;9.77;;
39050;SDS011;24805;55.852;37.644;2023-09-19T10:55:15;13.55;;;8.73;;
39050;SDS011;24805;55.852;37.644;2023-09-19T11:00:20;13.55;;;9.13;;
39050;SDS011;24805;55.852;37.644;2023-09-19T11:05:27;10.85;;;8.88;;
39050;SDS011;24805;55.852;37.644;2023-09-19T11:26:41;18.70;;;9.18;;
39050;SDS011;24805;55.852;37.644;2023-09-19T11:31:49;11.68;;;8.73;;
39050;SDS011;24805;55.852;37.644;2023-09-19T11:36:52;12.93;;;9.15;;
39050;SDS011;24805;55.852;37.644;2023-09-19T11:41:56;14.68;;;9.10;;
39050;SDS011;24805;55.852;37.644;2023-09-19T11:46:58;11.15;;;8.55;;
39050;SDS011;24805;55.852;37.644;2023-09-19T11:52:01;12.95;;;9.73;;
39050;SDS011;24805;55.852;37.644;2023-09-19T11:57:07;12.77;;;9.82;;
39050;SDS011;24805;55.852;37.644;2023-09-19T12:02:09;13.45;;;8.95;;
39050;SDS011;24805;55.852;37.644;2023-09-19T12:07:29;16.20;;;9.32;;
39050;SDS011;24805;55.852;37.644;2023-09-19T12:12:32;11.65;;;8.88;;
39050;SDS011;24805;55.852;37.644;2023-09-19T12:17:40;15.05;;;9.07;;
39050;SDS011;24805;55.852;37.644;2023-09-19T12:22:46;16.67;;;9.02;;
39050;SDS011;24805;55.852;37.644;2023-09-19T12:27:49;18.73;;;8.95;;
39050;SDS011;24805;55.852;37.644;2023-09-19T12:32:55;16.73;;;11.55;;
39050;SDS011;24805;55.852;37.644;2023-09-19T12:38:02;17.30;;;9.93;;
39050;SDS011;24805;55.852;37.644;2023-09-19T12:43:06;15.15;;;9.40;;
39050;SDS011;24805;55.852;37.644;2023-09-19T12:48:18;12.65;;;8.70;;
39050;SDS011;24805;55.852;37.644;2023-09-19T12:53:32;12.63;;;8.88;;
39050;SDS011;24805;55.852;37.644;2023-09-19T12:58:55;15.02;;;9.23;;
39050;SDS011;24805;55.852;37.644;2023-09-19T13:09:23;18.38;;;9.50;;
39050;SDS011;24805;55.852;37.644;2023-09-19T13:14:37;12.18;;;8.63;;
39050;SDS011;24805;55.852;37.644;2023-09-19T13:19:43;17.20;;;9.05;;
39050;SDS011;24805;55.852;37.644;2023-09-19T13:24:51;16.63;;;9.43;;
39050;SDS011;24805;55.852;37.644;2023-09-19T13:29:53;12.73;;;8.50;;
39050;SDS011;24805;55.852;37.644;2023-09-19T13:34:55;12.13;;;9.07;;
39050;SDS011;24805;55.852;37.644;2023-09-19T13:39:57;19.83;;;9.85;;
39050;SDS011;24805;55.852;37.644;2023-09-19T13:45:04;15.07;;;9.30;;
39050;SDS011;24805;55.852;37.644;2023-09-19T13:50:07;15.00;;;9.85;;
39050;SDS011;24805;55.852;37.644;2023-09-19T13:55:10;19.27;;;10.88;;
39050;SDS011;24805;55.852;37.644;2023-09-19T14:00:16;16.73;;;10.23;;
39050;SDS011;24805;55.852;37.644;2023-09-19T14:05:19;19.50;;;10.45;;
39050;SDS011;24805;55.852;37.644;2023-09-19T14:10:23;14.13;;;11.40;;
39050;SDS011;24805;55.852;37.644;2023-09-19T14:15:26;19.30;;;11.88;;
39050;SDS011;24805;55.852;37.644;2023-09-19T14:20:31;21.77;;;13.10;;
39050;SDS011;24805;55.852;37.644;2023-09-19T14:25:34;20.85;;;11.65;;
39050;SDS011;24805;55.852;37.644;2023-09-19T14:30:37;28.20;;;12.20;;
39050;SDS011;24805;55.852;37.644;2023-09-19T14:35:40;27.10;;;12.68;;
39050;SDS011;24805;55.852;37.644;2023-09-19T14:40:42;29.73;;;13.32;;
39050;SDS011;24805;55.852;37.644;2023-09-19T14:45:44;27.30;;;13.45;;
39050;SDS011;24805;55.852;37.644;2023-09-19T14:50:46;17.15;;;12.00;;
39050;SDS011;24805;55.852;37.644;2023-09-19T14:55:52;20.10;;;12.05;;
39050;SDS011;24805;55.852;37.644;2023-09-19T15:01:06;20.52;;;12.07;;
39050;SDS011;24805;55.852;37.644;2023-09-19T15:06:12;20.67;;;11.40;;
39050;SDS011;24805;55.852;37.644;2023-09-19T15:11:18;20.20;;;11.57;;
39050;SDS011;24805;55.852;37.644;2023-09-19T15:16:22;20.42;;;12.02;;
39050;SDS011;24805;55.852;37.644;2023-09-19T15:21:24;23.70;;;12.63;;
39050;SDS011;24805;55.852;37.644;2023-09-19T15:26:26;25.33;;;12.50;;
39050;SDS011;24805;55.852;37.644;2023-09-19T15:31:28;18.23;;;12.07;;
39050;SDS011;24805;55.852;37.644;2023-09-19T15:36:31;22.73;;;12.60;;
39050;SDS011;24805;55.852;37.644;2023-09-19T15:41:34;26.55;;;12.68;;
39050;SDS011;24805;55.852;37.644;2023-09-19T15:46:39;17.80;;;12.15;;
39050;SDS011;24805;55.852;37.644;2023-09-19T15:51:42;18.70;;;12.35;;
39050;SDS011;24805;55.852;37.644;2023-09-19T15:56:45;24.48;;;13.07;;
39050;SDS011;24805;55.852;37.644;2023-09-19T16:01:48;38.33;;;22.85;;
39050;SDS011;24805;55.852;37.644;2023-09-19T16:06:52;20.42;;;12.48;;
39050;SDS011;24805;55.852;37.644;2023-09-19T16:11:54;22.02;;;13.15;;
39050;SDS011;24805;55.852;37.644;2023-09-19T16:16:57;21.25;;;12.65;;
39050;SDS011;24805;55.852;37.644;2023-09-19T16:22:02;20.05;;;13.40;;
39050;SDS011;24805;55.852;37.644;2023-09-19T16:27:04;15.75;;;12.52;;
39050;SDS011;24805;55.852;37.644;2023-09-19T16:32:07;23.60;;;12.85;;
39050;SDS011;24805;55.852;37.644;2023-09-19T16:37:09;21.90;;;12.95;;
39050;SDS011;24805;55.852;37.644;2023-09-19T16:42:12;20.70;;;13.07;;
39050;SDS011;24805;55.852;37.644;2023-09-19T16:47:21;21.88;;;13.38;;
39050;SDS011;24805;55.852;37.644;2023-09-19T16:52:23;20.08;;;13.00;;
39050;SDS011;24805;55.852;37.644;2023-09-19T16:57:25;19.02;;;14.02;;
39050;SDS011;24805;55.852;37.644;2023-09-19T17:02:27;26.00;;;14.00;;
39050;SDS011;24805;55.852;37.644;2023-09-19T17:07:30;24.65;;;13.98;;
39050;SDS011;24805;55.852;37.644;2023-09-19T17:12:33;26.48;;;14.48;;
39050;SDS011;24805;55.852;37.644;2023-09-19T17:17:36;19.70;;;13.82;;
39050;SDS011;24805;55.852;37.644;2023-09-19T17:22:39;18.77;;;13.88;;
39050;SDS011;24805;55.852;37.644;2023-09-19T17:27:41;20.80;;;12.82;;
39050;SDS011;24805;55.852;37.644;2023-09-19T17:32:45;19.90;;;14.02;;
39050;SDS011;24805;55.852;37.644;2023-09-19T17:37:48;25.23;;;15.07;;
39050;SDS011;24805;55.852;37.644;2023-09-19T17:42:50;20.25;;;13.60;;
39050;SDS011;24805;55.852;37.644;2023-09-19T17:47:52;18.73;;;12.95;;
39050;SDS011;24805;55.852;37.644;2023-09-19T17:52:55;20.45;;;13.88;;
39050;SDS011;24805;55.852;37.644;2023-09-19T17:57:58;23.70;;;13.77;;
39050;SDS011;24805;55.852;37.644;2023-09-19T18:03:02;22.00;;;13.93;;
39050;SDS011;24805;55.852;37.644;2023-09-19T18:08:06;21.75;;;13.77;;
39050;SDS011;24805;55.852;37.644;2023-09-19T18:13:08;23.15;;;14.05;;
39050;SDS011;24805;55.852;37.644;2023-09-19T18:18:12;22.15;;;14.48;;
39050;SDS011;24805;55.852;37.644;2023-09-19T18:23:14;23.80;;;14.18;;
39050;SDS011;24805;55.852;37.644;2023-09-19T18:28:17;19.88;;;13.35;;
39050;SDS011;24805;55.852;37.644;2023-09-19T18:33:19;24.13;;;14.25;;
39050;SDS011;24805;55.852;37.644;2023-09-19T18:38:22;23.55;;;14.07;;
39050;SDS011;24805;55.852;37.644;2023-09-19T18:43:26;25.13;;;16.40;;
39050;SDS011;24805;55.852;37.644;2023-09-19T18:48:29;25.83;;;14.45;;
39050;SDS011;24805;55.852;37.644;2023-09-19T18:53:31;25.15;;;13.90;;
39050;SDS011;24805;55.852;37.644;2023-09-19T18:58:36;31.35;;;14.00;;
39050;SDS011;24805;55.852;37.644;2023-09-19T19:03:39;19.67;;;13.50;;
39050;SDS011;24805;55.852;37.644;2023-09-19T19:08:44;22.90;;;13.65;;
39050;SDS011;24805;55.852;37.644;2023-09-19T19:13:47;20.00;;;13.18;;
39050;SDS011;24805;55.852;37.644;2023-09-19T19:24:04;17.08;;;12.27;;
39050;SDS011;24805;55.852;37.644;2023-09-19T19:29:06;20.42;;;12.85;;
39050;SDS011;24805;55.852;37.644;2023-09-19T19:34:09;18.70;;;11.48;;
39050;SDS011;24805;55.852;37.644;2023-09-19T19:39:12;20.10;;;12.20;;
39050;SDS011;24805;55.852;37.644;2023-09-19T19:44:14;19.58;;;13.32;;
39050;SDS011;24805;55.852;37.644;2023-09-19T19:49:17;16.75;;;11.88;;
39050;SDS011;24805;55.852;37.644;2023-09-19T19:54:19;18.20;;;11.35;;
39050;SDS011;24805;55.852;37.644;2023-09-19T19:59:21;18.55;;;12.15;;
39050;SDS011;24805;55.852;37.644;2023-09-19T20:04:23;18.02;;;12.07;;
39050;SDS011;24805;55.852;37.644;2023-09-19T20:09:25;18.40;;;12.57;;
39050;SDS011;24805;55.852;37.644;2023-09-19T20:14:28;20.85;;;12.02;;
39050;SDS011;24805;55.852;37.644;2023-09-19T20:19:30;18.73;;;12.07;;
39050;SDS011;24805;55.852;37.644;2023-09-19T20:24:35;20.50;;;12.57;;
39050;SDS011;24805;55.852;37.644;2023-09-19T20:29:39;17.38;;;12.00;;
39050;SDS011;24805;55.852;37.644;2023-09-19T20:34:41;21.08;;;11.82;;
39050;SDS011;24805;55.852;37.644;2023-09-19T20:39:43;18.70;;;11.52;;
39050;SDS011;24805;55.852;37.644;2023-09-19T20:44:46;15.02;;;10.77;;
39050;SDS011;24805;55.852;37.644;2023-09-19T20:49:48;18.67;;;11.90;;
39050;SDS011;24805;55.852;37.644;2023-09-19T20:54:50;15.63;;;11.68;;
39050;SDS011;24805;55.852;37.644;2023-09-19T20:59:52;18.27;;;11.70;;
39050;SDS011;24805;55.852;37.644;2023-09-19T21:04:54;21.95;;;11.10;;
39050;SDS011;24805;55.852;37.644;2023-09-19T21:09:57;14.38;;;10.18;;
39050;SDS011;24805;55.852;37.644;2023-09-19T21:15:00;15.35;;;10.20;;
39050;SDS011;24805;55.852;37.644;2023-09-19T21:20:05;16.33;;;10.35;;
39050;SDS011;24805;55.852;37.644;2023-09-19T21:25:10;13.75;;;9.23;;
39050;SDS011;24805;55.852;37.644;2023-09-19T21:30:12;17.95;;;9.40;;
39050;SDS011;24805;55.852;37.644;2023-09-19T21:35:16;15.85;;;9.48;;
39050;SDS011;24805;55.852;37.644;2023-09-19T21:40:19;12.80;;;8.90;;
39050;SDS011;24805;55.852;37.644;2023-09-19T21:45:21;14.18;;;8.55;;
39050;SDS011;24805;55.852;37.644;2023-09-19T21:50:23;10.25;;;8.23;;
39050;SDS011;24805;55.852;37.644;2023-09-19T21:55:27;12.93;;;8.25;;
39050;SDS011;24805;55.852;37.644;2023-09-19T22:00:29;13.38;;;8.60;;
39050;SDS011;24805;55.852;37.644;2023-09-19T22:05:40;13.50;;;7.55;;
39050;SDS011;24805;55.852;37.644;2023-09-19T22:10:46;12.93;;;8.13;;
39050;SDS011;24805;55.852;37.644;2023-09-19T22:15:50;12.07;;;8.20;;
39050;SDS011;24805;55.852;37.644;2023-09-19T22:20:57;11.27;;;7.30;;
39050;SDS011;24805;55.852;37.644;2023-09-19T22:26:09;9.25;;;7.60;;
39050;SDS011;24805;55.852;37.644;2023-09-19T22:31:25;12.57;;;7.45;;
39050;SDS011;24805;55.852;37.644;2023-09-19T22:36:33;11.88;;;7.43;;
39050;SDS011;24805;55.852;37.644;2023-09-19T22:41:41;10.82;;;7.43;;
39050;SDS011;24805;55.852;37.644;2023-09-19T22:46:43;11.98;;;6.88;;
39050;SDS011;24805;55.852;37.644;2023-09-19T22:51:46;9.93;;;7.00;;
39050;SDS011;24805;55.852;37.644;2023-09-19T22:56:53;12.27;;;7.22;;
39050;SDS011;24805;55.852;37.644;2023-09-19T23:01:56;8.65;;;6.65;;
39050;SDS011;24805;55.852;37.644;2023-09-19T23:07:00;10.05;;;6.63;;
39050;SDS011;24805;55.852;37.644;2023-09-19T23:12:07;8.93;;;6.28;;
39050;SDS011;24805;55.852;37.644;2023-09-19T23:17:12;7.90;;;6.35;;
39050;SDS011;24805;55.852;37.644;2023-09-19T23:22:16;10.27;;;6.28;;
39050;SDS011;24805;55.852;37.644;2023-09-19T23:27:18;8.15;;;6.65;;
39050;SDS011;24805;55.852;37.644;2023-09-19T23:32:27;11.63;;;6.68;;
39050;SDS011;24805;55.852;37.644;2023-09-19T23:37:29;8.40;;;7.10;;
39050;SDS011;24805;55.852;37.644;2023-09-19T23:42:32;10.43;;;7.00;;
39050;SDS011;24805;55.852;37.644;2023-09-19T23:47:34;9.98;;;6.97;;
39050;SDS011;24805;55.852;37.644;2023-09-19T23:52:41;11.70;;;7.07;;
39050;SDS011;24805;55.852;37.644;2023-09-19T23:57:43;10.70;;;6.63;;
